sensor_id;sensor_type;location;lat;lon;timestamp;P1;durP1;ratioP1;P2;durP2;ratioP2
20069;SDS011;10195;50.868;4.382;2023-05-28T00:00:09;16.98;;;6.88;;
20069;SDS011;10195;50.868;4.382;2023-05-28T00:02:36;20.60;;;7.50;;
20069;SDS011;10195;50.868;4.382;2023-05-28T00:05:02;18.47;;;7.47;;
20069;SDS011;10195;50.868;4.382;2023-05-28T00:07:29;15.07;;;7.07;;
20069;SDS011;10195;50.868;4.382;2023-05-28T00:09:55;23.87;;;7.40;;
20069;SDS011;10195;50.868;4.382;2023-05-28T00:12:21;20.90;;;7.43;;
20069;SDS011;10195;50.868;4.382;2023-05-28T00:14:47;20.52;;;7.18;;
20069;SDS011;10195;50.868;4.382;2023-05-28T00:17:13;18.65;;;7.43;;
20069;SDS011;10195;50.868;4.382;2023-05-28T00:19:40;23.00;;;7.83;;
20069;SDS011;10195;50.868;4.382;2023-05-28T00:22:06;16.15;;;7.47;;
20069;SDS011;10195;50.868;4.382;2023-05-28T00:24:32;20.60;;;8.13;;
20069;SDS011;10195;50.868;4.382;2023-05-28T00:26:58;26.40;;;8.48;;
20069;SDS011;10195;50.868;4.382;2023-05-28T00:29:24;23.03;;;8.87;;
20069;SDS011;10195;50.868;4.382;2023-05-28T00:31:52;18.90;;;7.23;;
20069;SDS011;10195;50.868;4.382;2023-05-28T00:34:20;18.50;;;7.87;;
20069;SDS011;10195;50.868;4.382;2023-05-28T00:36:46;22.90;;;7.97;;
20069;SDS011;10195;50.868;4.382;2023-05-28T00:39:14;15.97;;;7.37;;
20069;SDS011;10195;50.868;4.382;2023-05-28T00:41:40;21.37;;;8.50;;
20069;SDS011;10195;50.868;4.382;2023-05-28T00:44:05;27.70;;;8.60;;
20069;SDS011;10195;50.868;4.382;2023-05-28T00:46:34;21.20;;;8.37;;
20069;SDS011;10195;50.868;4.382;2023-05-28T00:49:00;24.80;;;8.20;;
20069;SDS011;10195;50.868;4.382;2023-05-28T00:51:26;18.63;;;7.93;;
20069;SDS011;10195;50.868;4.382;2023-05-28T00:53:53;20.40;;;8.53;;
20069;SDS011;10195;50.868;4.382;2023-05-28T00:56:19;19.00;;;8.00;;
20069;SDS011;10195;50.868;4.382;2023-05-28T00:58:47;23.53;;;7.93;;
20069;SDS011;10195;50.868;4.382;2023-05-28T01:01:14;21.27;;;8.70;;
20069;SDS011;10195;50.868;4.382;2023-05-28T01:03:40;21.20;;;8.97;;
20069;SDS011;10195;50.868;4.382;2023-05-28T01:06:10;21.50;;;9.37;;
20069;SDS011;10195;50.868;4.382;2023-05-28T01:08:37;22.43;;;8.97;;
20069;SDS011;10195;50.868;4.382;2023-05-28T01:11:05;19.93;;;8.97;;
20069;SDS011;10195;50.868;4.382;2023-05-28T01:13:33;20.60;;;9.80;;
20069;SDS011;10195;50.868;4.382;2023-05-28T01:15:59;28.73;;;10.00;;
20069;SDS011;10195;50.868;4.382;2023-05-28T01:18:25;22.00;;;9.67;;
20069;SDS011;10195;50.868;4.382;2023-05-28T01:20:52;31.93;;;9.90;;
20069;SDS011;10195;50.868;4.382;2023-05-28T01:23:18;23.70;;;9.33;;
20069;SDS011;10195;50.868;4.382;2023-05-28T01:25:50;27.13;;;9.60;;
20069;SDS011;10195;50.868;4.382;2023-05-28T01:28:16;26.10;;;10.50;;
20069;SDS011;10195;50.868;4.382;2023-05-28T01:30:42;31.77;;;9.70;;
20069;SDS011;10195;50.868;4.382;2023-05-28T01:33:12;28.93;;;9.73;;
20069;SDS011;10195;50.868;4.382;2023-05-28T01:35:41;31.10;;;9.33;;
20069;SDS011;10195;50.868;4.382;2023-05-28T01:38:08;17.57;;;8.97;;
20069;SDS011;10195;50.868;4.382;2023-05-28T01:40:36;21.57;;;10.43;;
20069;SDS011;10195;50.868;4.382;2023-05-28T01:43:03;25.93;;;10.30;;
20069;SDS011;10195;50.868;4.382;2023-05-28T01:45:29;24.00;;;10.47;;
20069;SDS011;10195;50.868;4.382;2023-05-28T01:47:56;23.73;;;10.83;;
20069;SDS011;10195;50.868;4.382;2023-05-28T01:50:22;23.47;;;10.03;;
20069;SDS011;10195;50.868;4.382;2023-05-28T01:52:48;36.40;;;10.03;;
20069;SDS011;10195;50.868;4.382;2023-05-28T01:55:14;22.47;;;10.50;;
20069;SDS011;10195;50.868;4.382;2023-05-28T01:57:39;25.87;;;10.70;;
20069;SDS011;10195;50.868;4.382;2023-05-28T02:00:05;30.87;;;10.87;;
20069;SDS011;10195;50.868;4.382;2023-05-28T02:02:32;25.57;;;10.80;;
20069;SDS011;10195;50.868;4.382;2023-05-28T02:04:59;27.53;;;10.80;;
20069;SDS011;10195;50.868;4.382;2023-05-28T02:07:25;26.73;;;10.73;;
20069;SDS011;10195;50.868;4.382;2023-05-28T02:09:51;25.17;;;11.47;;
20069;SDS011;10195;50.868;4.382;2023-05-28T02:12:17;24.67;;;11.13;;
20069;SDS011;10195;50.868;4.382;2023-05-28T02:14:43;22.97;;;11.40;;
20069;SDS011;10195;50.868;4.382;2023-05-28T02:17:09;22.10;;;10.73;;
20069;SDS011;10195;50.868;4.382;2023-05-28T02:19:36;25.33;;;11.07;;
20069;SDS011;10195;50.868;4.382;2023-05-28T02:22:02;26.53;;;11.60;;
20069;SDS011;10195;50.868;4.382;2023-05-28T02:24:35;27.73;;;12.17;;
20069;SDS011;10195;50.868;4.382;2023-05-28T02:27:01;29.80;;;11.53;;
20069;SDS011;10195;50.868;4.382;2023-05-28T02:29:28;26.60;;;11.40;;
20069;SDS011;10195;50.868;4.382;2023-05-28T02:31:54;26.33;;;11.37;;
20069;SDS011;10195;50.868;4.382;2023-05-28T02:34:20;28.83;;;12.03;;
20069;SDS011;10195;50.868;4.382;2023-05-28T02:36:46;30.33;;;11.60;;
20069;SDS011;10195;50.868;4.382;2023-05-28T02:39:11;24.87;;;11.07;;
20069;SDS011;10195;50.868;4.382;2023-05-28T02:41:38;26.93;;;11.73;;
20069;SDS011;10195;50.868;4.382;2023-05-28T02:44:04;30.47;;;12.10;;
20069;SDS011;10195;50.868;4.382;2023-05-28T02:46:29;28.17;;;12.23;;
20069;SDS011;10195;50.868;4.382;2023-05-28T02:48:55;27.80;;;11.80;;
20069;SDS011;10195;50.868;4.382;2023-05-28T02:51:21;25.10;;;10.63;;
20069;SDS011;10195;50.868;4.382;2023-05-28T02:53:46;27.40;;;11.00;;
20069;SDS011;10195;50.868;4.382;2023-05-28T02:56:12;30.97;;;11.83;;
20069;SDS011;10195;50.868;4.382;2023-05-28T02:58:38;29.43;;;11.97;;
20069;SDS011;10195;50.868;4.382;2023-05-28T03:01:04;29.53;;;11.97;;
20069;SDS011;10195;50.868;4.382;2023-05-28T03:03:31;19.60;;;10.80;;
20069;SDS011;10195;50.868;4.382;2023-05-28T03:05:57;29.17;;;12.00;;
20069;SDS011;10195;50.868;4.382;2023-05-28T03:08:22;26.93;;;12.07;;
20069;SDS011;10195;50.868;4.382;2023-05-28T03:10:48;30.27;;;11.67;;
20069;SDS011;10195;50.868;4.382;2023-05-28T03:13:13;24.50;;;11.50;;
20069;SDS011;10195;50.868;4.382;2023-05-28T03:15:39;30.87;;;12.50;;
20069;SDS011;10195;50.868;4.382;2023-05-28T03:18:05;29.37;;;11.90;;
20069;SDS011;10195;50.868;4.382;2023-05-28T03:20:31;29.23;;;12.37;;
20069;SDS011;10195;50.868;4.382;2023-05-28T03:22:57;27.47;;;11.57;;
20069;SDS011;10195;50.868;4.382;2023-05-28T03:25:23;27.70;;;11.90;;
20069;SDS011;10195;50.868;4.382;2023-05-28T03:27:50;22.97;;;11.97;;
20069;SDS011;10195;50.868;4.382;2023-05-28T03:30:15;28.17;;;12.17;;
20069;SDS011;10195;50.868;4.382;2023-05-28T03:32:41;32.83;;;12.13;;
20069;SDS011;10195;50.868;4.382;2023-05-28T03:35:07;27.27;;;12.17;;
20069;SDS011;10195;50.868;4.382;2023-05-28T03:37:33;26.87;;;12.70;;
20069;SDS011;10195;50.868;4.382;2023-05-28T03:39:59;31.67;;;11.83;;
20069;SDS011;10195;50.868;4.382;2023-05-28T03:42:25;27.57;;;12.27;;
20069;SDS011;10195;50.868;4.382;2023-05-28T03:44:51;29.47;;;12.37;;
20069;SDS011;10195;50.868;4.382;2023-05-28T03:47:16;28.07;;;12.77;;
20069;SDS011;10195;50.868;4.382;2023-05-28T03:49:42;24.77;;;12.47;;
20069;SDS011;10195;50.868;4.382;2023-05-28T03:52:08;23.50;;;11.73;;
20069;SDS011;10195;50.868;4.382;2023-05-28T03:54:34;30.33;;;13.47;;
20069;SDS011;10195;50.868;4.382;2023-05-28T03:57:00;33.87;;;13.03;;
20069;SDS011;10195;50.868;4.382;2023-05-28T03:59:26;27.83;;;12.13;;
20069;SDS011;10195;50.868;4.382;2023-05-28T04:01:52;30.30;;;13.27;;
20069;SDS011;10195;50.868;4.382;2023-05-28T04:04:17;30.43;;;13.50;;
20069;SDS011;10195;50.868;4.382;2023-05-28T04:06:43;35.27;;;13.47;;
20069;SDS011;10195;50.868;4.382;2023-05-28T04:09:09;23.00;;;13.03;;
20069;SDS011;10195;50.868;4.382;2023-05-28T04:11:35;28.97;;;12.23;;
20069;SDS011;10195;50.868;4.382;2023-05-28T04:14:02;23.37;;;12.93;;
20069;SDS011;10195;50.868;4.382;2023-05-28T04:16:28;25.30;;;11.23;;
20069;SDS011;10195;50.868;4.382;2023-05-28T04:18:55;30.13;;;13.37;;
20069;SDS011;10195;50.868;4.382;2023-05-28T04:21:21;21.90;;;12.00;;
20069;SDS011;10195;50.868;4.382;2023-05-28T04:23:48;32.93;;;12.00;;
20069;SDS011;10195;50.868;4.382;2023-05-28T04:26:14;32.23;;;12.57;;
20069;SDS011;10195;50.868;4.382;2023-05-28T04:28:40;32.33;;;13.07;;
20069;SDS011;10195;50.868;4.382;2023-05-28T04:31:06;26.03;;;12.97;;
20069;SDS011;10195;50.868;4.382;2023-05-28T04:33:32;30.63;;;12.40;;
20069;SDS011;10195;50.868;4.382;2023-05-28T04:35:58;24.67;;;12.10;;
20069;SDS011;10195;50.868;4.382;2023-05-28T04:38:24;27.93;;;12.50;;
20069;SDS011;10195;50.868;4.382;2023-05-28T04:40:54;31.57;;;13.10;;
20069;SDS011;10195;50.868;4.382;2023-05-28T04:43:20;24.43;;;11.57;;
20069;SDS011;10195;50.868;4.382;2023-05-28T04:45:49;28.13;;;12.63;;
20069;SDS011;10195;50.868;4.382;2023-05-28T04:48:18;32.70;;;12.77;;
20069;SDS011;10195;50.868;4.382;2023-05-28T04:50:44;31.70;;;12.93;;
20069;SDS011;10195;50.868;4.382;2023-05-28T04:53:10;34.83;;;12.63;;
20069;SDS011;10195;50.868;4.382;2023-05-28T04:55:35;27.80;;;12.00;;
20069;SDS011;10195;50.868;4.382;2023-05-28T04:58:01;31.77;;;13.23;;
20069;SDS011;10195;50.868;4.382;2023-05-28T05:00:27;29.83;;;12.60;;
20069;SDS011;10195;50.868;4.382;2023-05-28T05:02:53;29.63;;;13.47;;
20069;SDS011;10195;50.868;4.382;2023-05-28T05:05:19;35.47;;;13.70;;
20069;SDS011;10195;50.868;4.382;2023-05-28T05:07:45;33.30;;;13.00;;
20069;SDS011;10195;50.868;4.382;2023-05-28T05:10:11;29.47;;;11.87;;
20069;SDS011;10195;50.868;4.382;2023-05-28T05:12:38;24.60;;;10.93;;
20069;SDS011;10195;50.868;4.382;2023-05-28T05:15:04;31.83;;;12.97;;
20069;SDS011;10195;50.868;4.382;2023-05-28T05:17:31;22.47;;;12.07;;
20069;SDS011;10195;50.868;4.382;2023-05-28T05:19:57;32.10;;;12.67;;
20069;SDS011;10195;50.868;4.382;2023-05-28T05:22:23;24.40;;;11.73;;
20069;SDS011;10195;50.868;4.382;2023-05-28T05:24:49;23.57;;;12.07;;
20069;SDS011;10195;50.868;4.382;2023-05-28T05:27:15;24.73;;;10.77;;
20069;SDS011;10195;50.868;4.382;2023-05-28T05:29:41;27.33;;;11.67;;
20069;SDS011;10195;50.868;4.382;2023-05-28T05:32:08;24.97;;;11.00;;
20069;SDS011;10195;50.868;4.382;2023-05-28T05:34:35;26.00;;;10.33;;
20069;SDS011;10195;50.868;4.382;2023-05-28T05:37:00;26.10;;;11.17;;
20069;SDS011;10195;50.868;4.382;2023-05-28T05:39:26;28.63;;;11.23;;
20069;SDS011;10195;50.868;4.382;2023-05-28T05:41:53;21.30;;;10.23;;
20069;SDS011;10195;50.868;4.382;2023-05-28T05:44:19;18.35;;;10.10;;
20069;SDS011;10195;50.868;4.382;2023-05-28T05:46:44;18.00;;;9.10;;
20069;SDS011;10195;50.868;4.382;2023-05-28T05:49:10;21.17;;;9.70;;
20069;SDS011;10195;50.868;4.382;2023-05-28T05:51:36;24.00;;;10.57;;
20069;SDS011;10195;50.868;4.382;2023-05-28T05:54:02;22.63;;;10.88;;
20069;SDS011;10195;50.868;4.382;2023-05-28T05:56:28;20.17;;;9.02;;
20069;SDS011;10195;50.868;4.382;2023-05-28T05:58:54;24.02;;;9.73;;
20069;SDS011;10195;50.868;4.382;2023-05-28T06:01:20;20.13;;;8.90;;
20069;SDS011;10195;50.868;4.382;2023-05-28T06:03:46;24.13;;;10.10;;
20069;SDS011;10195;50.868;4.382;2023-05-28T06:06:13;20.98;;;10.18;;
20069;SDS011;10195;50.868;4.382;2023-05-28T06:08:39;17.17;;;9.75;;
20069;SDS011;10195;50.868;4.382;2023-05-28T06:11:05;18.67;;;9.13;;
20069;SDS011;10195;50.868;4.382;2023-05-28T06:13:31;16.55;;;9.68;;
20069;SDS011;10195;50.868;4.382;2023-05-28T06:15:57;18.50;;;10.00;;
20069;SDS011;10195;50.868;4.382;2023-05-28T06:18:25;25.58;;;9.52;;
20069;SDS011;10195;50.868;4.382;2023-05-28T06:20:51;21.25;;;10.38;;
20069;SDS011;10195;50.868;4.382;2023-05-28T06:23:17;25.77;;;9.57;;
20069;SDS011;10195;50.868;4.382;2023-05-28T06:25:42;17.90;;;9.65;;
20069;SDS011;10195;50.868;4.382;2023-05-28T06:28:09;18.02;;;9.32;;
20069;SDS011;10195;50.868;4.382;2023-05-28T06:30:35;25.67;;;9.73;;
20069;SDS011;10195;50.868;4.382;2023-05-28T06:33:02;18.83;;;9.43;;
20069;SDS011;10195;50.868;4.382;2023-05-28T06:35:28;26.02;;;9.80;;
20069;SDS011;10195;50.868;4.382;2023-05-28T06:37:53;17.90;;;9.07;;
20069;SDS011;10195;50.868;4.382;2023-05-28T06:40:19;20.38;;;9.40;;
20069;SDS011;10195;50.868;4.382;2023-05-28T06:42:46;28.90;;;9.32;;
20069;SDS011;10195;50.868;4.382;2023-05-28T06:45:11;21.58;;;9.95;;
20069;SDS011;10195;50.868;4.382;2023-05-28T06:47:37;17.15;;;9.50;;
20069;SDS011;10195;50.868;4.382;2023-05-28T06:50:03;19.33;;;9.75;;
20069;SDS011;10195;50.868;4.382;2023-05-28T06:52:29;21.88;;;9.68;;
20069;SDS011;10195;50.868;4.382;2023-05-28T06:54:55;19.65;;;9.20;;
20069;SDS011;10195;50.868;4.382;2023-05-28T06:57:21;23.55;;;8.75;;
20069;SDS011;10195;50.868;4.382;2023-05-28T06:59:47;18.33;;;8.15;;
20069;SDS011;10195;50.868;4.382;2023-05-28T07:02:13;22.27;;;9.57;;
20069;SDS011;10195;50.868;4.382;2023-05-28T07:04:38;19.58;;;9.02;;
20069;SDS011;10195;50.868;4.382;2023-05-28T07:07:05;20.90;;;9.07;;
20069;SDS011;10195;50.868;4.382;2023-05-28T07:09:31;22.60;;;10.40;;
20069;SDS011;10195;50.868;4.382;2023-05-28T07:11:56;18.30;;;8.40;;
20069;SDS011;10195;50.868;4.382;2023-05-28T07:14:22;17.23;;;8.98;;
20069;SDS011;10195;50.868;4.382;2023-05-28T07:16:48;17.70;;;8.40;;
20069;SDS011;10195;50.868;4.382;2023-05-28T07:19:13;20.45;;;7.93;;
20069;SDS011;10195;50.868;4.382;2023-05-28T07:21:39;18.13;;;8.27;;
20069;SDS011;10195;50.868;4.382;2023-05-28T07:24:05;19.17;;;8.35;;
20069;SDS011;10195;50.868;4.382;2023-05-28T07:26:32;14.23;;;7.95;;
20069;SDS011;10195;50.868;4.382;2023-05-28T07:28:58;17.65;;;7.68;;
20069;SDS011;10195;50.868;4.382;2023-05-28T07:31:26;16.42;;;7.85;;
20069;SDS011;10195;50.868;4.382;2023-05-28T07:33:54;17.85;;;7.60;;
20069;SDS011;10195;50.868;4.382;2023-05-28T07:36:20;18.10;;;7.20;;
20069;SDS011;10195;50.868;4.382;2023-05-28T07:38:45;16.58;;;8.55;;
20069;SDS011;10195;50.868;4.382;2023-05-28T07:41:11;14.07;;;7.72;;
20069;SDS011;10195;50.868;4.382;2023-05-28T07:43:37;19.27;;;8.32;;
20069;SDS011;10195;50.868;4.382;2023-05-28T07:46:03;15.52;;;7.22;;
20069;SDS011;10195;50.868;4.382;2023-05-28T07:48:28;14.50;;;7.13;;
20069;SDS011;10195;50.868;4.382;2023-05-28T07:50:54;15.80;;;7.25;;
20069;SDS011;10195;50.868;4.382;2023-05-28T07:53:20;18.67;;;7.38;;
20069;SDS011;10195;50.868;4.382;2023-05-28T07:55:45;18.13;;;7.22;;
20069;SDS011;10195;50.868;4.382;2023-05-28T07:58:11;18.80;;;7.43;;
20069;SDS011;10195;50.868;4.382;2023-05-28T08:00:38;13.60;;;6.63;;
20069;SDS011;10195;50.868;4.382;2023-05-28T08:03:04;18.83;;;7.75;;
20069;SDS011;10195;50.868;4.382;2023-05-28T08:05:30;17.92;;;7.55;;
20069;SDS011;10195;50.868;4.382;2023-05-28T08:07:56;14.32;;;6.93;;
20069;SDS011;10195;50.868;4.382;2023-05-28T08:10:22;19.33;;;7.10;;
20069;SDS011;10195;50.868;4.382;2023-05-28T08:12:48;12.52;;;6.03;;
20069;SDS011;10195;50.868;4.382;2023-05-28T08:15:14;21.40;;;6.82;;
20069;SDS011;10195;50.868;4.382;2023-05-28T08:17:40;17.33;;;7.05;;
20069;SDS011;10195;50.868;4.382;2023-05-28T08:20:06;16.50;;;6.53;;
20069;SDS011;10195;50.868;4.382;2023-05-28T08:22:36;23.55;;;7.18;;
20069;SDS011;10195;50.868;4.382;2023-05-28T08:25:02;14.77;;;6.43;;
20069;SDS011;10195;50.868;4.382;2023-05-28T08:27:28;18.88;;;6.95;;
20069;SDS011;10195;50.868;4.382;2023-05-28T08:29:55;15.65;;;6.30;;
20069;SDS011;10195;50.868;4.382;2023-05-28T08:32:21;14.27;;;6.38;;
20069;SDS011;10195;50.868;4.382;2023-05-28T08:34:47;21.08;;;6.85;;
20069;SDS011;10195;50.868;4.382;2023-05-28T08:37:13;13.02;;;6.60;;
20069;SDS011;10195;50.868;4.382;2023-05-28T08:39:38;12.85;;;6.45;;
20069;SDS011;10195;50.868;4.382;2023-05-28T08:42:04;13.95;;;6.30;;
20069;SDS011;10195;50.868;4.382;2023-05-28T08:44:31;9.38;;;4.65;;
20069;SDS011;10195;50.868;4.382;2023-05-28T08:46:57;12.23;;;6.03;;
20069;SDS011;10195;50.868;4.382;2023-05-28T08:49:31;13.75;;;5.97;;
20069;SDS011;10195;50.868;4.382;2023-05-28T08:52:00;15.18;;;6.40;;
20069;SDS011;10195;50.868;4.382;2023-05-28T08:54:28;12.48;;;5.50;;
20069;SDS011;10195;50.868;4.382;2023-05-28T08:56:55;15.10;;;5.95;;
20069;SDS011;10195;50.868;4.382;2023-05-28T08:59:21;17.88;;;6.10;;
20069;SDS011;10195;50.868;4.382;2023-05-28T09:01:49;10.82;;;5.00;;
20069;SDS011;10195;50.868;4.382;2023-05-28T09:04:15;14.65;;;6.13;;
20069;SDS011;10195;50.868;4.382;2023-05-28T09:06:41;16.45;;;6.40;;
20069;SDS011;10195;50.868;4.382;2023-05-28T09:09:06;15.77;;;5.97;;
20069;SDS011;10195;50.868;4.382;2023-05-28T09:11:33;16.67;;;6.05;;
20069;SDS011;10195;50.868;4.382;2023-05-28T09:14:01;17.40;;;5.72;;
20069;SDS011;10195;50.868;4.382;2023-05-28T09:16:35;12.05;;;5.50;;
20069;SDS011;10195;50.868;4.382;2023-05-28T09:19:04;14.88;;;5.93;;
20069;SDS011;10195;50.868;4.382;2023-05-28T09:21:30;15.32;;;5.95;;
20069;SDS011;10195;50.868;4.382;2023-05-28T09:23:57;12.40;;;5.53;;
20069;SDS011;10195;50.868;4.382;2023-05-28T09:26:29;14.95;;;5.43;;
20069;SDS011;10195;50.868;4.382;2023-05-28T09:28:56;12.60;;;5.60;;
20069;SDS011;10195;50.868;4.382;2023-05-28T09:31:31;10.13;;;5.47;;
20069;SDS011;10195;50.868;4.382;2023-05-28T09:33:58;13.13;;;5.43;;
20069;SDS011;10195;50.868;4.382;2023-05-28T09:36:26;13.80;;;5.72;;
20069;SDS011;10195;50.868;4.382;2023-05-28T09:38:55;14.90;;;5.72;;
20069;SDS011;10195;50.868;4.382;2023-05-28T09:41:22;13.55;;;5.90;;
20069;SDS011;10195;50.868;4.382;2023-05-28T09:43:56;14.50;;;5.78;;
20069;SDS011;10195;50.868;4.382;2023-05-28T09:46:34;13.93;;;5.57;;
20069;SDS011;10195;50.868;4.382;2023-05-28T09:49:00;17.23;;;6.07;;
20069;SDS011;10195;50.868;4.382;2023-05-28T09:51:28;21.05;;;5.82;;
20069;SDS011;10195;50.868;4.382;2023-05-28T09:54:00;12.68;;;5.10;;
20069;SDS011;10195;50.868;4.382;2023-05-28T09:56:32;8.57;;;4.85;;
20069;SDS011;10195;50.868;4.382;2023-05-28T09:59:00;14.40;;;5.53;;
20069;SDS011;10195;50.868;4.382;2023-05-28T10:01:32;12.73;;;4.82;;
20069;SDS011;10195;50.868;4.382;2023-05-28T10:04:07;11.55;;;4.85;;
20069;SDS011;10195;50.868;4.382;2023-05-28T10:06:34;12.82;;;5.38;;
20069;SDS011;10195;50.868;4.382;2023-05-28T10:09:02;13.48;;;5.18;;
20069;SDS011;10195;50.868;4.382;2023-05-28T10:11:33;16.05;;;5.88;;
20069;SDS011;10195;50.868;4.382;2023-05-28T10:14:04;12.02;;;5.55;;
20069;SDS011;10195;50.868;4.382;2023-05-28T10:16:31;11.80;;;5.28;;
20069;SDS011;10195;50.868;4.382;2023-05-28T10:18:57;12.20;;;4.68;;
20069;SDS011;10195;50.868;4.382;2023-05-28T10:21:24;16.70;;;5.65;;
20069;SDS011;10195;50.868;4.382;2023-05-28T10:23:51;10.27;;;5.45;;
20069;SDS011;10195;50.868;4.382;2023-05-28T10:26:17;13.40;;;5.45;;
20069;SDS011;10195;50.868;4.382;2023-05-28T10:28:44;13.68;;;5.75;;
20069;SDS011;10195;50.868;4.382;2023-05-28T10:31:10;16.50;;;5.25;;
20069;SDS011;10195;50.868;4.382;2023-05-28T10:33:39;17.60;;;5.70;;
20069;SDS011;10195;50.868;4.382;2023-05-28T10:36:10;14.68;;;5.53;;
20069;SDS011;10195;50.868;4.382;2023-05-28T10:41:18;11.18;;;5.05;;
20069;SDS011;10195;50.868;4.382;2023-05-28T10:43:49;13.75;;;5.30;;
20069;SDS011;10195;50.868;4.382;2023-05-28T10:46:26;17.23;;;5.45;;
20069;SDS011;10195;50.868;4.382;2023-05-28T10:49:04;16.73;;;6.18;;
20069;SDS011;10195;50.868;4.382;2023-05-28T10:57:06;11.70;;;5.35;;
20069;SDS011;10195;50.868;4.382;2023-05-28T10:59:37;13.23;;;4.80;;
20069;SDS011;10195;50.868;4.382;2023-05-28T11:02:04;11.68;;;4.95;;
20069;SDS011;10195;50.868;4.382;2023-05-28T11:04:35;13.15;;;5.40;;
20069;SDS011;10195;50.868;4.382;2023-05-28T11:07:02;14.57;;;6.05;;
20069;SDS011;10195;50.868;4.382;2023-05-28T11:09:28;11.77;;;4.78;;
20069;SDS011;10195;50.868;4.382;2023-05-28T11:11:57;14.48;;;5.68;;
20069;SDS011;10195;50.868;4.382;2023-05-28T11:14:37;13.93;;;5.10;;
20069;SDS011;10195;50.868;4.382;2023-05-28T11:17:07;14.18;;;4.97;;
20069;SDS011;10195;50.868;4.382;2023-05-28T11:19:41;11.50;;;4.70;;
20069;SDS011;10195;50.868;4.382;2023-05-28T11:22:08;15.73;;;4.80;;
20069;SDS011;10195;50.868;4.382;2023-05-28T11:24:49;14.73;;;5.90;;
20069;SDS011;10195;50.868;4.382;2023-05-28T11:27:24;9.73;;;4.95;;
20069;SDS011;10195;50.868;4.382;2023-05-28T11:29:54;12.80;;;5.53;;
20069;SDS011;10195;50.868;4.382;2023-05-28T11:32:21;11.15;;;5.15;;
20069;SDS011;10195;50.868;4.382;2023-05-28T11:34:50;14.20;;;5.13;;
20069;SDS011;10195;50.868;4.382;2023-05-28T11:37:22;13.63;;;5.50;;
20069;SDS011;10195;50.868;4.382;2023-05-28T11:39:52;16.85;;;5.85;;
20069;SDS011;10195;50.868;4.382;2023-05-28T11:42:19;10.90;;;4.95;;
20069;SDS011;10195;50.868;4.382;2023-05-28T11:44:46;10.00;;;4.60;;
20069;SDS011;10195;50.868;4.382;2023-05-28T11:47:13;15.57;;;4.90;;
20069;SDS011;10195;50.868;4.382;2023-05-28T11:49:39;13.07;;;3.85;;
20069;SDS011;10195;50.868;4.382;2023-05-28T11:52:16;16.33;;;4.80;;
20069;SDS011;10195;50.868;4.382;2023-05-28T11:54:44;12.00;;;5.25;;
20069;SDS011;10195;50.868;4.382;2023-05-28T11:57:15;9.82;;;5.40;;
20069;SDS011;10195;50.868;4.382;2023-05-28T12:00:10;15.13;;;5.45;;
20069;SDS011;10195;50.868;4.382;2023-05-28T12:02:47;11.93;;;5.57;;
20069;SDS011;10195;50.868;4.382;2023-05-28T12:05:14;11.88;;;5.05;;
20069;SDS011;10195;50.868;4.382;2023-05-28T12:07:58;15.05;;;4.82;;
20069;SDS011;10195;50.868;4.382;2023-05-28T12:10:26;9.70;;;4.72;;
20069;SDS011;10195;50.868;4.382;2023-05-28T12:12:54;13.23;;;5.10;;
20069;SDS011;10195;50.868;4.382;2023-05-28T12:15:26;13.57;;;5.15;;
20069;SDS011;10195;50.868;4.382;2023-05-28T12:17:55;12.20;;;5.40;;
20069;SDS011;10195;50.868;4.382;2023-05-28T12:20:29;11.60;;;4.38;;
20069;SDS011;10195;50.868;4.382;2023-05-28T12:23:06;12.23;;;5.15;;
20069;SDS011;10195;50.868;4.382;2023-05-28T12:28:09;8.57;;;4.32;;
20069;SDS011;10195;50.868;4.382;2023-05-28T12:30:35;14.20;;;4.90;;
20069;SDS011;10195;50.868;4.382;2023-05-28T12:33:02;9.95;;;4.78;;
20069;SDS011;10195;50.868;4.382;2023-05-28T12:35:29;14.50;;;4.90;;
20069;SDS011;10195;50.868;4.382;2023-05-28T12:37:55;16.70;;;5.22;;
20069;SDS011;10195;50.868;4.382;2023-05-28T12:40:21;11.18;;;5.32;;
20069;SDS011;10195;50.868;4.382;2023-05-28T12:42:46;11.15;;;5.05;;
20069;SDS011;10195;50.868;4.382;2023-05-28T12:45:12;13.27;;;5.40;;
20069;SDS011;10195;50.868;4.382;2023-05-28T12:47:39;12.48;;;5.68;;
20069;SDS011;10195;50.868;4.382;2023-05-28T12:50:05;13.25;;;5.25;;
20069;SDS011;10195;50.868;4.382;2023-05-28T12:52:31;12.75;;;3.83;;
20069;SDS011;10195;50.868;4.382;2023-05-28T12:54:59;14.48;;;7.90;;
20069;SDS011;10195;50.868;4.382;2023-05-28T12:57:28;15.07;;;5.50;;
20069;SDS011;10195;50.868;4.382;2023-05-28T12:59:57;9.77;;;4.60;;
20069;SDS011;10195;50.868;4.382;2023-05-28T13:02:23;14.32;;;4.75;;
20069;SDS011;10195;50.868;4.382;2023-05-28T13:04:49;13.00;;;4.97;;
20069;SDS011;10195;50.868;4.382;2023-05-28T13:07:15;9.68;;;3.25;;
20069;SDS011;10195;50.868;4.382;2023-05-28T13:09:41;13.05;;;4.93;;
20069;SDS011;10195;50.868;4.382;2023-05-28T13:12:06;19.48;;;5.50;;
20069;SDS011;10195;50.868;4.382;2023-05-28T13:14:32;8.73;;;5.13;;
20069;SDS011;10195;50.868;4.382;2023-05-28T13:16:58;13.88;;;5.28;;
20069;SDS011;10195;50.868;4.382;2023-05-28T13:19:24;12.93;;;5.05;;
20069;SDS011;10195;50.868;4.382;2023-05-28T13:21:50;15.65;;;5.32;;
20069;SDS011;10195;50.868;4.382;2023-05-28T13:24:16;12.80;;;5.32;;
20069;SDS011;10195;50.868;4.382;2023-05-28T13:26:42;12.48;;;5.60;;
20069;SDS011;10195;50.868;4.382;2023-05-28T13:29:08;15.40;;;4.10;;
20069;SDS011;10195;50.868;4.382;2023-05-28T13:31:34;11.27;;;4.32;;
20069;SDS011;10195;50.868;4.382;2023-05-28T13:34:00;12.55;;;5.22;;
20069;SDS011;10195;50.868;4.382;2023-05-28T13:36:27;13.68;;;4.90;;
20069;SDS011;10195;50.868;4.382;2023-05-28T13:38:54;15.98;;;5.80;;
20069;SDS011;10195;50.868;4.382;2023-05-28T13:41:21;14.30;;;5.65;;
20069;SDS011;10195;50.868;4.382;2023-05-28T13:43:49;12.35;;;4.82;;
20069;SDS011;10195;50.868;4.382;2023-05-28T13:46:20;12.00;;;5.25;;
20069;SDS011;10195;50.868;4.382;2023-05-28T13:48:50;13.23;;;5.05;;
20069;SDS011;10195;50.868;4.382;2023-05-28T13:51:16;8.80;;;3.40;;
20069;SDS011;10195;50.868;4.382;2023-05-28T13:53:42;14.90;;;5.32;;
20069;SDS011;10195;50.868;4.382;2023-05-28T13:56:10;11.68;;;5.32;;
20069;SDS011;10195;50.868;4.382;2023-05-28T13:58:37;17.38;;;4.47;;
20069;SDS011;10195;50.868;4.382;2023-05-28T14:01:05;7.88;;;4.50;;
20069;SDS011;10195;50.868;4.382;2023-05-28T14:03:31;10.32;;;5.32;;
20069;SDS011;10195;50.868;4.382;2023-05-28T14:05:58;12.00;;;4.93;;
20069;SDS011;10195;50.868;4.382;2023-05-28T14:08:25;10.68;;;4.60;;
20069;SDS011;10195;50.868;4.382;2023-05-28T14:10:50;11.52;;;5.13;;
20069;SDS011;10195;50.868;4.382;2023-05-28T14:13:16;19.98;;;5.20;;
20069;SDS011;10195;50.868;4.382;2023-05-28T14:15:42;14.48;;;4.72;;
20069;SDS011;10195;50.868;4.382;2023-05-28T14:18:08;12.32;;;5.00;;
20069;SDS011;10195;50.868;4.382;2023-05-28T14:20:35;11.00;;;5.00;;
20069;SDS011;10195;50.868;4.382;2023-05-28T14:23:01;12.38;;;4.47;;
20069;SDS011;10195;50.868;4.382;2023-05-28T14:25:28;11.48;;;5.10;;
20069;SDS011;10195;50.868;4.382;2023-05-28T14:27:54;12.80;;;5.03;;
20069;SDS011;10195;50.868;4.382;2023-05-28T14:30:20;9.05;;;4.45;;
20069;SDS011;10195;50.868;4.382;2023-05-28T14:32:47;11.85;;;4.78;;
20069;SDS011;10195;50.868;4.382;2023-05-28T14:35:13;13.90;;;4.78;;
20069;SDS011;10195;50.868;4.382;2023-05-28T14:37:38;16.50;;;5.20;;
20069;SDS011;10195;50.868;4.382;2023-05-28T14:40:05;11.50;;;4.65;;